Nome の空港の天気 - METARとTAF

Nome, Nome Airport ( PAOM / OME ) - アメリカ アラスカ州Nome
飛行場実況気象(Metar)
観測時間09/24 17:53 AKDT (09/25 01:53 UTC)
風向・風速東 7m/s
視程10km以上
天気現象
全天の4割程度の雲 雲底高度 670m
全天の8割程度の雲 雲底高度 1830m
気温10℃
湿度83%
気圧1000.8hPa
METARPAOM 250153Z 10013KT 10SM SCT022 BKN060 10/07 A2955 RMK AO2 SLP008 T01000072
過去の天気等 Google飛行場航空写真 Wunderground天気予報

過去48時間のMETAR

飛行場予報(TAF)
発表時間: 9/24 15:20 AKDT (9/24 23:20 UTC)
予報対象時間: 24日16時 AKDT ~ 25日16時 AKDT
風向・風速東 7m/s
視程10km以上
天気現象周辺でしゅう雨
全天の8割程度の雲 雲底高度 640m
全天の8割程度の雲 雲底高度 850m
全天を覆う雲 雲底高度 1070m
24日20時 AKDT から
風向・風速東 3m/s
視程10km以上
天気現象弱いしゅう雨
全天の4割程度の雲 雲底高度 760m
全天の8割程度の雲 雲底高度 1520m
全天を覆う雲 雲底高度 3050m
25日2時 AKDT から
風向・風速不定 2m/s
視程10km以上
天気現象周辺でしゅう雨
全天の4割程度の雲 雲底高度 760m
全天を覆う雲 雲底高度 1520m
25日12時 AKDT から
風向・風速西南西 4m/s
視程10km以上
天気現象周辺でしゅう雨
全天の8割程度の雲 雲底高度 1520m
全天の8割程度の雲 雲底高度 3050m
PAOM 242320Z 2500/2524 10013KT P6SM VCSH BKN021 BKN028 OVC035
FM250400 10006KT P6SM -SHRA SCT025 BKN050 OVC100
FM251000 VRB03KT P6SM VCSH SCT025 OVC050
FM252000 25007KT P6SM VCSH BKN050 BKN100